sensor_id;sensor_type;location;lat;lon;timestamp;pressure;altitude;pressure_sealevel;temperature;humidity
71361;BME280;59166;48.908;1.870;2023-04-12T00:02:30;99126.75;;;9.58;100.00
71361;BME280;59166;48.908;1.870;2023-04-12T00:07:37;99110.03;;;9.56;100.00
71361;BME280;59166;48.908;1.870;2023-04-12T00:12:44;99090.91;;;9.58;100.00
71361;BME280;59166;48.908;1.870;2023-04-12T00:18:02;99078.22;;;9.58;100.00
71361;BME280;59166;48.908;1.870;2023-04-12T00:29:00;99062.31;;;9.57;100.00
71361;BME280;59166;48.908;1.870;2023-04-12T00:45:41;99016.78;;;9.55;100.00
71361;BME280;59166;48.908;1.870;2023-04-12T00:51:18;99004.91;;;9.56;100.00
71361;BME280;59166;48.908;1.870;2023-04-12T00:57:52;98988.69;;;9.61;100.00
71361;BME280;59166;48.908;1.870;2023-04-12T01:02:33;98971.63;;;9.66;100.00
71361;BME280;59166;48.908;1.870;2023-04-12T01:07:44;98960.28;;;9.69;100.00
71361;BME280;59166;48.908;1.870;2023-04-12T01:19:28;98931.66;;;9.73;100.00
71361;BME280;59166;48.908;1.870;2023-04-12T01:30:21;98913.44;;;9.83;100.00
71361;BME280;59166;48.908;1.870;2023-04-12T01:41:06;98876.72;;;9.88;100.00
71361;BME280;59166;48.908;1.870;2023-04-12T01:46:52;98882.34;;;9.91;100.00
71361;BME280;59166;48.908;1.870;2023-04-12T02:03:24;98844.44;;;10.01;100.00
71361;BME280;59166;48.908;1.870;2023-04-12T02:08:47;98836.25;;;10.06;100.00
71361;BME280;59166;48.908;1.870;2023-04-12T02:14:04;98831.16;;;10.05;100.00
71361;BME280;59166;48.908;1.870;2023-04-12T02:24:51;98831.28;;;10.13;100.00
71361;BME280;59166;48.908;1.870;2023-04-12T02:30:09;98865.06;;;10.29;100.00
71361;BME280;59166;48.908;1.870;2023-04-12T02:35:23;98884.69;;;10.16;100.00
71361;BME280;59166;48.908;1.870;2023-04-12T02:40:53;98871.22;;;9.74;100.00
71361;BME280;59166;48.908;1.870;2023-04-12T02:46:01;98855.44;;;9.44;100.00
71361;BME280;59166;48.908;1.870;2023-04-12T02:51:14;98854.03;;;9.27;100.00
71361;BME280;59166;48.908;1.870;2023-04-12T02:56:33;98841.63;;;9.26;100.00
71361;BME280;59166;48.908;1.870;2023-04-12T03:01:58;98844.88;;;9.28;100.00
71361;BME280;59166;48.908;1.870;2023-04-12T03:07:20;98815.53;;;9.22;100.00
71361;BME280;59166;48.908;1.870;2023-04-12T03:12:22;98814.41;;;9.28;100.00
71361;BME280;59166;48.908;1.870;2023-04-12T03:17:23;98804.44;;;9.28;100.00
71361;BME280;59166;48.908;1.870;2023-04-12T03:22:24;98800.13;;;9.27;100.00
71361;BME280;59166;48.908;1.870;2023-04-12T03:27:27;98808.56;;;9.21;100.00
71361;BME280;59166;48.908;1.870;2023-04-12T03:32:28;98803.63;;;9.28;100.00
71361;BME280;59166;48.908;1.870;2023-04-12T03:37:29;98807.63;;;9.30;100.00
71361;BME280;59166;48.908;1.870;2023-04-12T03:42:31;98801.66;;;9.33;100.00
71361;BME280;59166;48.908;1.870;2023-04-12T03:47:32;98797.94;;;9.29;100.00
71361;BME280;59166;48.908;1.870;2023-04-12T03:52:36;98798.53;;;9.26;100.00
71361;BME280;59166;48.908;1.870;2023-04-12T03:57:38;98825.41;;;9.31;100.00
71361;BME280;59166;48.908;1.870;2023-04-12T04:02:39;98816.81;;;9.29;100.00
71361;BME280;59166;48.908;1.870;2023-04-12T04:07:40;98804.09;;;9.11;100.00
71361;BME280;59166;48.908;1.870;2023-04-12T04:12:42;98787.38;;;8.91;100.00
71361;BME280;59166;48.908;1.870;2023-04-12T04:17:43;98788.53;;;8.79;100.00
71361;BME280;59166;48.908;1.870;2023-04-12T04:22:44;98782.44;;;8.69;100.00
71361;BME280;59166;48.908;1.870;2023-04-12T04:27:47;98793.06;;;8.55;100.00
71361;BME280;59166;48.908;1.870;2023-04-12T04:32:48;98788.31;;;8.47;100.00
71361;BME280;59166;48.908;1.870;2023-04-12T04:37:48;98794.16;;;8.54;100.00
71361;BME280;59166;48.908;1.870;2023-04-12T04:42:51;98821.88;;;8.55;100.00
71361;BME280;59166;48.908;1.870;2023-04-12T04:47:52;98830.44;;;8.28;100.00
71361;BME280;59166;48.908;1.870;2023-04-12T04:52:52;98840.63;;;7.97;100.00
71361;BME280;59166;48.908;1.870;2023-04-12T04:57:55;98861.22;;;7.73;100.00
71361;BME280;59166;48.908;1.870;2023-04-12T05:02:56;98844.59;;;7.66;100.00
71361;BME280;59166;48.908;1.870;2023-04-12T05:07:57;98870.41;;;7.57;100.00
71361;BME280;59166;48.908;1.870;2023-04-12T05:12:59;98832.28;;;7.50;100.00
71361;BME280;59166;48.908;1.870;2023-04-12T05:18:00;98859.94;;;7.50;100.00
71361;BME280;59166;48.908;1.870;2023-04-12T05:23:01;98863.50;;;7.46;100.00
71361;BME280;59166;48.908;1.870;2023-04-12T05:28:04;98869.13;;;7.49;100.00
71361;BME280;59166;48.908;1.870;2023-04-12T05:33:04;98866.72;;;7.38;100.00
71361;BME280;59166;48.908;1.870;2023-04-12T05:38:05;98864.28;;;7.41;100.00
71361;BME280;59166;48.908;1.870;2023-04-12T05:43:07;98858.13;;;7.46;100.00
71361;BME280;59166;48.908;1.870;2023-04-12T05:48:08;98871.22;;;7.57;100.00
71361;BME280;59166;48.908;1.870;2023-04-12T05:53:40;98843.72;;;7.70;100.00
71361;BME280;59166;48.908;1.870;2023-04-12T05:58:42;98858.47;;;7.83;100.00
71361;BME280;59166;48.908;1.870;2023-04-12T06:03:43;98881.28;;;7.86;100.00
71361;BME280;59166;48.908;1.870;2023-04-12T06:08:44;98869.44;;;7.87;100.00
71361;BME280;59166;48.908;1.870;2023-04-12T06:13:46;98856.53;;;7.89;100.00
71361;BME280;59166;48.908;1.870;2023-04-12T06:18:47;98872.38;;;7.90;100.00
71361;BME280;59166;48.908;1.870;2023-04-12T06:23:48;98877.00;;;7.85;100.00
71361;BME280;59166;48.908;1.870;2023-04-12T06:28:50;98866.50;;;7.88;100.00
71361;BME280;59166;48.908;1.870;2023-04-12T06:33:51;98878.31;;;7.87;100.00
71361;BME280;59166;48.908;1.870;2023-04-12T06:38:52;98878.84;;;7.89;100.00
71361;BME280;59166;48.908;1.870;2023-04-12T06:43:54;98880.94;;;7.97;100.00
71361;BME280;59166;48.908;1.870;2023-04-12T06:48:55;98879.31;;;8.06;100.00
71361;BME280;59166;48.908;1.870;2023-04-12T06:53:56;98880.25;;;8.25;100.00
71361;BME280;59166;48.908;1.870;2023-04-12T07:09:55;98865.81;;;8.79;100.00
71361;BME280;59166;48.908;1.870;2023-04-12T07:14:57;98868.16;;;8.86;100.00
71361;BME280;59166;48.908;1.870;2023-04-12T07:20:03;98862.22;;;8.60;100.00
71361;BME280;59166;48.908;1.870;2023-04-12T07:25:10;98869.59;;;8.44;100.00
71361;BME280;59166;48.908;1.870;2023-04-12T07:30:12;98877.06;;;8.52;100.00
71361;BME280;59166;48.908;1.870;2023-04-12T07:35:28;98879.19;;;8.55;100.00
71361;BME280;59166;48.908;1.870;2023-04-12T07:40:38;98888.81;;;8.66;100.00
71361;BME280;59166;48.908;1.870;2023-04-12T07:45:40;98893.94;;;8.63;100.00
71361;BME280;59166;48.908;1.870;2023-04-12T07:50:51;98903.00;;;8.72;100.00
71361;BME280;59166;48.908;1.870;2023-04-12T07:55:53;98906.66;;;8.86;100.00
71361;BME280;59166;48.908;1.870;2023-04-12T08:00:58;98897.78;;;8.91;100.00
71361;BME280;59166;48.908;1.870;2023-04-12T08:06:00;98904.41;;;8.98;100.00
71361;BME280;59166;48.908;1.870;2023-04-12T08:11:02;98904.41;;;8.98;100.00
71361;BME280;59166;48.908;1.870;2023-04-12T08:16:07;98901.28;;;8.91;100.00
71361;BME280;59166;48.908;1.870;2023-04-12T08:21:20;98913.50;;;9.07;100.00
71361;BME280;59166;48.908;1.870;2023-04-12T08:26:26;98924.41;;;9.21;100.00
71361;BME280;59166;48.908;1.870;2023-04-12T08:31:31;98913.00;;;9.53;100.00
71361;BME280;59166;48.908;1.870;2023-04-12T08:36:36;98917.41;;;10.47;100.00
71361;BME280;59166;48.908;1.870;2023-04-12T08:41:44;98933.81;;;10.13;99.95
71361;BME280;59166;48.908;1.870;2023-04-12T08:46:46;98930.28;;;9.75;100.00
71361;BME280;59166;48.908;1.870;2023-04-12T08:51:52;98936.41;;;9.81;100.00
71361;BME280;59166;48.908;1.870;2023-04-12T08:57:02;98941.56;;;10.76;100.00
71361;BME280;59166;48.908;1.870;2023-04-12T09:02:23;98937.25;;;10.38;100.00
71361;BME280;59166;48.908;1.870;2023-04-12T09:07:32;98940.13;;;10.46;97.12
71361;BME280;59166;48.908;1.870;2023-04-12T09:12:33;98956.22;;;10.14;100.00
71361;BME280;59166;48.908;1.870;2023-04-12T09:17:34;98959.44;;;10.72;98.37
71361;BME280;59166;48.908;1.870;2023-04-12T09:22:37;98961.25;;;10.58;98.46
71361;BME280;59166;48.908;1.870;2023-04-12T09:27:45;98952.78;;;11.48;86.46
71361;BME280;59166;48.908;1.870;2023-04-12T09:32:46;98953.75;;;11.93;85.00
71361;BME280;59166;48.908;1.870;2023-04-12T09:37:56;98956.97;;;10.94;85.01
71361;BME280;59166;48.908;1.870;2023-04-12T09:42:57;98960.00;;;11.06;75.55
71361;BME280;59166;48.908;1.870;2023-04-12T09:47:58;98970.69;;;11.11;81.78
71361;BME280;59166;48.908;1.870;2023-04-12T09:53:02;98966.00;;;12.04;75.85
71361;BME280;59166;48.908;1.870;2023-04-12T09:58:03;98959.03;;;11.29;79.98
71361;BME280;59166;48.908;1.870;2023-04-12T10:03:04;98961.84;;;11.24;81.52
71361;BME280;59166;48.908;1.870;2023-04-12T10:08:07;98951.94;;;11.01;82.39
71361;BME280;59166;48.908;1.870;2023-04-12T10:13:07;98957.53;;;10.72;80.81
71361;BME280;59166;48.908;1.870;2023-04-12T10:18:13;98963.09;;;10.62;82.07
71361;BME280;59166;48.908;1.870;2023-04-12T10:23:17;98957.81;;;10.71;83.97
71361;BME280;59166;48.908;1.870;2023-04-12T10:28:19;98965.16;;;11.35;87.31
71361;BME280;59166;48.908;1.870;2023-04-12T10:33:36;98960.38;;;11.46;78.01
71361;BME280;59166;48.908;1.870;2023-04-12T10:38:46;98967.00;;;11.94;70.37
71361;BME280;59166;48.908;1.870;2023-04-12T10:43:47;98979.22;;;11.64;70.94
71361;BME280;59166;48.908;1.870;2023-04-12T10:48:51;98968.91;;;11.80;68.75
71361;BME280;59166;48.908;1.870;2023-04-12T10:54:29;98972.28;;;11.31;68.45
71361;BME280;59166;48.908;1.870;2023-04-12T10:59:51;98973.41;;;11.44;75.00
71361;BME280;59166;48.908;1.870;2023-04-12T11:05:07;98965.22;;;11.16;73.64
71361;BME280;59166;48.908;1.870;2023-04-12T11:10:14;98973.88;;;11.00;73.94
71361;BME280;59166;48.908;1.870;2023-04-12T11:15:15;98976.53;;;10.86;71.29
71361;BME280;59166;48.908;1.870;2023-04-12T11:20:16;98962.47;;;11.62;72.00
71361;BME280;59166;48.908;1.870;2023-04-12T11:25:18;98969.72;;;11.94;68.74
71361;BME280;59166;48.908;1.870;2023-04-12T11:30:20;98963.06;;;12.27;65.67
71361;BME280;59166;48.908;1.870;2023-04-12T11:35:21;98950.84;;;12.66;66.93
71361;BME280;59166;48.908;1.870;2023-04-12T11:40:23;98937.03;;;12.54;68.51
71361;BME280;59166;48.908;1.870;2023-04-12T11:45:25;98945.44;;;12.88;67.94
71361;BME280;59166;48.908;1.870;2023-04-12T11:50:29;98950.06;;;13.10;64.78
71361;BME280;59166;48.908;1.870;2023-04-12T11:55:32;98950.38;;;13.70;70.60
71361;BME280;59166;48.908;1.870;2023-04-12T12:00:37;98946.66;;;13.66;63.27
71361;BME280;59166;48.908;1.870;2023-04-12T12:05:41;98924.50;;;12.80;59.50
71361;BME280;59166;48.908;1.870;2023-04-12T12:10:43;98941.75;;;12.12;63.23
71361;BME280;59166;48.908;1.870;2023-04-12T12:15:45;98935.53;;;11.57;67.45
71361;BME280;59166;48.908;1.870;2023-04-12T12:20:49;98928.94;;;11.77;72.57
71361;BME280;59166;48.908;1.870;2023-04-12T12:25:52;98931.91;;;11.89;70.50
71361;BME280;59166;48.908;1.870;2023-04-12T12:30:53;98928.94;;;11.50;69.02
71361;BME280;59166;48.908;1.870;2023-04-12T12:35:55;98932.91;;;11.38;67.53
71361;BME280;59166;48.908;1.870;2023-04-12T12:40:57;98941.56;;;11.08;74.64
71361;BME280;59166;48.908;1.870;2023-04-12T12:45:58;98943.75;;;10.74;76.97
71361;BME280;59166;48.908;1.870;2023-04-12T12:50:59;98950.97;;;10.97;78.95
71361;BME280;59166;48.908;1.870;2023-04-12T12:56:01;98945.94;;;10.72;78.56
71361;BME280;59166;48.908;1.870;2023-04-12T13:01:06;98938.97;;;9.91;84.04
71361;BME280;59166;48.908;1.870;2023-04-12T13:06:08;98937.81;;;9.26;86.71
71361;BME280;59166;48.908;1.870;2023-04-12T13:11:10;98931.16;;;9.47;86.69
71361;BME280;59166;48.908;1.870;2023-04-12T13:16:11;98920.72;;;10.95;92.35
71361;BME280;59166;48.908;1.870;2023-04-12T13:21:14;98909.72;;;11.65;88.31
71361;BME280;59166;48.908;1.870;2023-04-12T13:26:16;98889.34;;;11.81;82.71
71361;BME280;59166;48.908;1.870;2023-04-12T13:31:17;98891.97;;;12.58;79.31
71361;BME280;59166;48.908;1.870;2023-04-12T13:36:20;98904.16;;;13.22;76.09
71361;BME280;59166;48.908;1.870;2023-04-12T13:41:23;98901.44;;;13.13;64.24
71361;BME280;59166;48.908;1.870;2023-04-12T13:46:24;98914.34;;;13.16;64.40
71361;BME280;59166;48.908;1.870;2023-04-12T13:51:25;98905.47;;;12.49;67.68
71361;BME280;59166;48.908;1.870;2023-04-12T13:56:27;98908.94;;;12.50;70.40
71361;BME280;59166;48.908;1.870;2023-04-12T14:01:28;98892.25;;;13.01;65.59
71361;BME280;59166;48.908;1.870;2023-04-12T14:06:30;98901.69;;;12.23;64.21
71361;BME280;59166;48.908;1.870;2023-04-12T14:11:52;98911.06;;;11.89;62.52
71361;BME280;59166;48.908;1.870;2023-04-12T14:16:54;98908.53;;;12.07;61.57
71361;BME280;59166;48.908;1.870;2023-04-12T14:21:55;98896.78;;;12.38;64.32
71361;BME280;59166;48.908;1.870;2023-04-12T14:26:58;98893.56;;;13.03;63.33
71361;BME280;59166;48.908;1.870;2023-04-12T14:31:58;98902.38;;;13.17;60.87
71361;BME280;59166;48.908;1.870;2023-04-12T14:36:59;98898.09;;;12.94;57.49
71361;BME280;59166;48.908;1.870;2023-04-12T14:42:02;98895.91;;;12.96;55.76
71361;BME280;59166;48.908;1.870;2023-04-12T14:47:03;98890.22;;;12.39;57.57
71361;BME280;59166;48.908;1.870;2023-04-12T14:52:04;98885.19;;;12.47;57.08
71361;BME280;59166;48.908;1.870;2023-04-12T14:57:06;98874.59;;;13.03;57.73
71361;BME280;59166;48.908;1.870;2023-04-12T15:02:07;98865.03;;;13.14;56.32
71361;BME280;59166;48.908;1.870;2023-04-12T15:07:08;98874.72;;;13.37;54.38
71361;BME280;59166;48.908;1.870;2023-04-12T15:12:10;98882.88;;;13.77;51.97
71361;BME280;59166;48.908;1.870;2023-04-12T15:17:11;98879.72;;;13.44;51.38
71361;BME280;59166;48.908;1.870;2023-04-12T15:22:11;98870.53;;;13.31;52.68
71361;BME280;59166;48.908;1.870;2023-04-12T15:27:14;98866.38;;;12.95;50.94
71361;BME280;59166;48.908;1.870;2023-04-12T15:32:15;98867.19;;;12.95;51.83
71361;BME280;59166;48.908;1.870;2023-04-12T15:37:15;98863.28;;;13.10;52.86
71361;BME280;59166;48.908;1.870;2023-04-12T15:42:18;98866.13;;;13.05;52.91
71361;BME280;59166;48.908;1.870;2023-04-12T15:47:18;98868.81;;;13.35;56.25
71361;BME280;59166;48.908;1.870;2023-04-12T15:52:19;98878.31;;;13.16;50.08
71361;BME280;59166;48.908;1.870;2023-04-12T15:57:21;98899.03;;;12.67;52.35
71361;BME280;59166;48.908;1.870;2023-04-12T16:02:22;98909.84;;;11.96;52.76
71361;BME280;59166;48.908;1.870;2023-04-12T16:07:23;98891.66;;;11.60;53.90
71361;BME280;59166;48.908;1.870;2023-04-12T16:12:26;98910.19;;;11.40;53.47
71361;BME280;59166;48.908;1.870;2023-04-12T16:17:27;98915.63;;;10.94;56.18
71361;BME280;59166;48.908;1.870;2023-04-12T16:22:27;98971.41;;;10.28;63.89
71361;BME280;59166;48.908;1.870;2023-04-12T16:27:30;99017.13;;;8.81;78.61
71361;BME280;59166;48.908;1.870;2023-04-12T16:32:31;99041.81;;;7.70;89.37
71361;BME280;59166;48.908;1.870;2023-04-12T16:37:31;98986.25;;;7.50;92.09
71361;BME280;59166;48.908;1.870;2023-04-12T16:42:34;98959.13;;;7.42;91.52
71361;BME280;59166;48.908;1.870;2023-04-12T16:47:35;98941.63;;;7.59;92.26
71361;BME280;59166;48.908;1.870;2023-04-12T16:52:35;98944.53;;;7.73;91.09
71361;BME280;59166;48.908;1.870;2023-04-12T16:57:39;98940.00;;;8.17;88.98
71361;BME280;59166;48.908;1.870;2023-04-12T17:02:40;98935.16;;;8.58;85.87
71361;BME280;59166;48.908;1.870;2023-04-12T17:07:42;98946.06;;;8.77;83.26
71361;BME280;59166;48.908;1.870;2023-04-12T17:12:49;98946.66;;;8.69;82.34
71361;BME280;59166;48.908;1.870;2023-04-12T17:17:51;98947.28;;;8.56;84.89
71361;BME280;59166;48.908;1.870;2023-04-12T17:22:54;98943.03;;;8.50;86.66
71361;BME280;59166;48.908;1.870;2023-04-12T17:27:58;98939.38;;;8.30;84.63
71361;BME280;59166;48.908;1.870;2023-04-12T17:32:58;98931.91;;;8.22;83.31
71361;BME280;59166;48.908;1.870;2023-04-12T17:37:59;98921.72;;;8.19;82.27
71361;BME280;59166;48.908;1.870;2023-04-12T17:43:02;98919.84;;;8.15;83.45
71361;BME280;59166;48.908;1.870;2023-04-12T17:48:03;98899.63;;;8.22;79.80
71361;BME280;59166;48.908;1.870;2023-04-12T17:53:04;98895.06;;;8.23;81.80
71361;BME280;59166;48.908;1.870;2023-04-12T17:58:06;98894.69;;;8.35;80.14
71361;BME280;59166;48.908;1.870;2023-04-12T18:03:07;98890.41;;;8.34;80.43
71361;BME280;59166;48.908;1.870;2023-04-12T18:08:08;98881.53;;;8.33;81.25
71361;BME280;59166;48.908;1.870;2023-04-12T18:13:10;98893.09;;;8.34;80.38
71361;BME280;59166;48.908;1.870;2023-04-12T18:18:11;98899.03;;;8.30;81.46
71361;BME280;59166;48.908;1.870;2023-04-12T18:23:12;98906.00;;;8.31;79.80
71361;BME280;59166;48.908;1.870;2023-04-12T18:28:14;98902.50;;;8.31;78.30
71361;BME280;59166;48.908;1.870;2023-04-12T18:33:19;98908.63;;;8.42;77.93
71361;BME280;59166;48.908;1.870;2023-04-12T18:38:20;98915.19;;;8.64;72.35
71361;BME280;59166;48.908;1.870;2023-04-12T18:43:23;98921.28;;;8.75;69.71
71361;BME280;59166;48.908;1.870;2023-04-12T18:48:24;98910.25;;;8.76;70.66
71361;BME280;59166;48.908;1.870;2023-04-12T18:53:25;98932.94;;;8.65;70.03
71361;BME280;59166;48.908;1.870;2023-04-12T18:58:27;98959.44;;;8.53;73.06
71361;BME280;59166;48.908;1.870;2023-04-12T19:03:28;98951.44;;;8.43;74.88
71361;BME280;59166;48.908;1.870;2023-04-12T19:08:29;98968.44;;;8.28;76.59
71361;BME280;59166;48.908;1.870;2023-04-12T19:13:31;98967.50;;;8.09;78.21
71361;BME280;59166;48.908;1.870;2023-04-12T19:18:32;98982.03;;;8.03;78.45
71361;BME280;59166;48.908;1.870;2023-04-12T19:23:33;98986.38;;;7.94;76.82
71361;BME280;59166;48.908;1.870;2023-04-12T19:28:36;98990.97;;;7.84;77.95
71361;BME280;59166;48.908;1.870;2023-04-12T19:33:39;99010.66;;;7.69;78.67
71361;BME280;59166;48.908;1.870;2023-04-12T19:38:39;99009.81;;;7.73;77.58
71361;BME280;59166;48.908;1.870;2023-04-12T19:43:42;99011.75;;;7.63;79.01
71361;BME280;59166;48.908;1.870;2023-04-12T19:48:43;98998.34;;;7.53;81.10
71361;BME280;59166;48.908;1.870;2023-04-12T19:53:44;99014.75;;;7.41;82.61
71361;BME280;59166;48.908;1.870;2023-04-12T19:58:46;99019.59;;;7.29;85.45
71361;BME280;59166;48.908;1.870;2023-04-12T20:03:47;99023.06;;;7.29;85.45
71361;BME280;59166;48.908;1.870;2023-04-12T20:08:48;99037.06;;;7.32;85.60
71361;BME280;59166;48.908;1.870;2023-04-12T20:13:51;99029.78;;;7.27;85.72
71361;BME280;59166;48.908;1.870;2023-04-12T20:18:52;99034.91;;;7.28;86.00
71361;BME280;59166;48.908;1.870;2023-04-12T20:23:52;99028.16;;;7.36;86.89
71361;BME280;59166;48.908;1.870;2023-04-12T20:28:55;99002.13;;;7.32;86.49
71361;BME280;59166;48.908;1.870;2023-04-12T20:33:56;99005.63;;;7.32;86.98
71361;BME280;59166;48.908;1.870;2023-04-12T20:38:57;99012.34;;;7.35;88.17
71361;BME280;59166;48.908;1.870;2023-04-12T20:43:59;99011.78;;;7.38;86.36
71361;BME280;59166;48.908;1.870;2023-04-12T20:49:00;99007.22;;;7.33;86.54
71361;BME280;59166;48.908;1.870;2023-04-12T20:54:01;99001.59;;;7.35;86.79
71361;BME280;59166;48.908;1.870;2023-04-12T20:59:04;99008.56;;;7.31;86.05
71361;BME280;59166;48.908;1.870;2023-04-12T21:04:07;99016.63;;;7.31;87.19
71361;BME280;59166;48.908;1.870;2023-04-12T21:09:09;99029.53;;;7.28;86.93
71361;BME280;59166;48.908;1.870;2023-04-12T21:14:23;99025.75;;;7.29;86.42
71361;BME280;59166;48.908;1.870;2023-04-12T21:19:24;99018.53;;;7.25;87.47
71361;BME280;59166;48.908;1.870;2023-04-12T21:24:25;98999.97;;;7.23;86.36
71361;BME280;59166;48.908;1.870;2023-04-12T21:29:43;99011.28;;;7.10;86.79
71361;BME280;59166;48.908;1.870;2023-04-12T21:34:51;99011.81;;;7.07;86.96
71361;BME280;59166;48.908;1.870;2023-04-12T21:39:56;99009.13;;;7.07;86.22
71361;BME280;59166;48.908;1.870;2023-04-12T21:45:08;99017.72;;;7.14;85.41
71361;BME280;59166;48.908;1.870;2023-04-12T21:50:17;99015.03;;;7.14;85.72
71361;BME280;59166;48.908;1.870;2023-04-12T21:55:31;99016.13;;;7.18;85.54
71361;BME280;59166;48.908;1.870;2023-04-12T22:00:47;99019.31;;;7.20;86.14
71361;BME280;59166;48.908;1.870;2023-04-12T22:05:48;99015.56;;;7.21;85.80
71361;BME280;59166;48.908;1.870;2023-04-12T22:10:48;99029.00;;;7.21;85.91
71361;BME280;59166;48.908;1.870;2023-04-12T22:15:51;99016.94;;;7.19;86.66
71361;BME280;59166;48.908;1.870;2023-04-12T22:20:52;99022.00;;;7.10;87.43
71361;BME280;59166;48.908;1.870;2023-04-12T22:25:53;99040.28;;;7.13;87.42
71361;BME280;59166;48.908;1.870;2023-04-12T22:30:55;99041.34;;;7.12;87.30
71361;BME280;59166;48.908;1.870;2023-04-12T22:35:56;99020.66;;;7.13;87.53
71361;BME280;59166;48.908;1.870;2023-04-12T22:40:57;99030.06;;;7.10;88.42
71361;BME280;59166;48.908;1.870;2023-04-12T22:45:59;99031.41;;;7.08;88.88
71361;BME280;59166;48.908;1.870;2023-04-12T22:51:08;99036.25;;;7.06;88.51
71361;BME280;59166;48.908;1.870;2023-04-12T23:07:26;99063.09;;;7.16;89.10
71361;BME280;59166;48.908;1.870;2023-04-12T23:18:04;99060.16;;;7.07;90.38
71361;BME280;59166;48.908;1.870;2023-04-12T23:23:07;99055.84;;;7.11;90.11
71361;BME280;59166;48.908;1.870;2023-04-12T23:28:10;99073.06;;;7.15;90.76
71361;BME280;59166;48.908;1.870;2023-04-12T23:33:12;99064.97;;;7.10;90.26
71361;BME280;59166;48.908;1.870;2023-04-12T23:38:15;99060.13;;;7.02;91.49
71361;BME280;59166;48.908;1.870;2023-04-12T23:43:16;99064.41;;;6.93;91.67
71361;BME280;59166;48.908;1.870;2023-04-12T23:48:17;99058.00;;;6.94;92.46
71361;BME280;59166;48.908;1.870;2023-04-12T23:53:20;99066.56;;;6.86;93.20
71361;BME280;59166;48.908;1.870;2023-04-12T23:58:21;99072.22;;;6.85;93.95
